Flight Track Log - Related Links

Times and Time Zones

All times are in EST time to prevent confusion due to time zone crossing. See the SWA1802 flight status page for this flight to view local times or setup timezone preferences in your user account.

Time Position Orientation Groundspeed Altitude Reporting Facility
EST Latitude Longitude Course Direction KTS MPH feet Rate Location/Type
Sun 08:44:18 PM 41.2886 -95.8897 164° South 157 181 1,700  Level Minneapolis Center
Sun 08:44:48 PM 41.2714 -95.8833 164° South 152 175 2,700 1,978 Climbing Minneapolis Center
Sun 08:45:49 PM 41.2158 -95.8956 189° South 237 273 4,700 1,807 Climbing Minneapolis Center
Sun 08:46:11 PM 41.2111 -95.9103 247° West 225 259 5,200 2,643 Climbing Minneapolis Center
Sun 08:47:13 PM 41.2136 -95.9944 272° West 226 260 8,400 2,829 Climbing Minneapolis Center
Sun 08:48:14 PM 41.2236 -96.0886 278° West 247 284 11,000 2,634 Climbing Minneapolis Center
Sun 08:49:16 PM 41.2325 -96.2092 276° West 314 361 13,800 2,927 Climbing Minneapolis Center
Sun 08:50:17 PM 41.2433 -96.3550 276° West 327 376 17,000 2,878 Climbing Minneapolis Center
Sun 08:51:19 PM 41.2528 -96.4842 276° West 342 394 19,700 2,323 Climbing Minneapolis Center
Sun 08:52:21 PM 41.2625 -96.6164 276° West 354 407 21,800 2,146 Climbing Minneapolis Center
Sun 08:53:22 PM 41.2667 -96.7544 272° West 369 425 24,100 2,000 Climbing Minneapolis Center
Sun 08:54:24 PM 41.2494 -96.8956 261° West 386 444 25,900 1,951 Climbing Minneapolis Center
Sun 08:55:25 PM 41.2342 -97.0389 262° West 390 449 28,100 2,195 Climbing Minneapolis Center
Sun 08:56:27 PM 41.2194 -97.1781 262° West 384 442 30,400 2,146 Climbing Minneapolis Center
Sun 08:57:28 PM 41.2044 -97.3125 262° West 373 429 32,500 1,902 Climbing Minneapolis Center
Sun 08:58:30 PM 41.1892 -97.4481 262° West 361 415 34,300 1,500 Climbing Minneapolis Center
Sun 08:59:32 PM 41.1756 -97.5767 262° West 353 406 35,600 829 Climbing Minneapolis Center
Sun 09:00:33 PM 41.1606 -97.7058 261° West 353 406 36,000 195 Climbing Minneapolis Center
Sun 09:01:35 PM 41.1431 -97.8642 262° West 359 413 36,000  Level Minneapolis Center
Sun 09:02:36 PM 41.1278 -97.9950 261° West 359 413 36,000  Level Minneapolis Center
Sun 09:03:38 PM 41.1128 -98.1258 261° West 359 413 36,000  Level Minneapolis Center
Sun 09:04:39 PM 41.0964 -98.2572 261° West 360 414 36,000  Level Minneapolis Center
Sun 09:05:41 PM 41.0811 -98.3889 261° West 360 414 36,000  Level Minneapolis Center
Sun 09:06:42 PM 41.0669 -98.5114 261° West 361 415 36,000  Level Minneapolis Center
Sun 09:07:44 PM 41.0478 -98.6672 261° West 358 412 36,000  Level Minneapolis Center
Sun 09:08:45 PM 41.0331 -98.7958 261° West 355 409 36,000  Level Minneapolis Center
Sun 09:09:47 PM 41.0158 -98.9261 260° West 357 411 36,000  Level Minneapolis Center
Sun 09:10:48 PM 40.9992 -99.0564 260° West 359 413 36,000  Level Minneapolis Center
Sun 09:11:50 PM 40.9844 -99.1783 261° West 357 411 36,000  Level Minneapolis Center
Sun 09:12:51 PM 40.9678 -99.3092 260° West 358 412 36,000  Level Minneapolis Center
Sun 09:13:53 PM 40.9514 -99.4397 261° West 359 413 36,000  Level Minneapolis Center
Sun 09:14:54 PM 40.9314 -99.5969 260° West 360 414 36,000  Level Minneapolis Center
Sun 09:15:55 PM 40.9142 -99.7272 260° West 360 414 36,000  Level Minneapolis Center
Sun 09:16:57 PM 40.8964 -99.8589 260° West 363 418 36,000  Level Minneapolis Center
Sun 09:17:58 PM 40.8789 -99.9903 260° West 363 418 36,000  Level Minneapolis Center
Sun 09:19:01 PM 40.8608 -100.1231 260° West 365 420 36,000  Level Minneapolis Center
Sun 09:20:03 PM 40.8439 -100.2544 260° West 365 420 36,000  Level Minneapolis Center
Sun 09:21:04 PM 40.8253 -100.3858 259° West 364 419 36,000  Level Minneapolis Center
Sun 09:22:05 PM 40.8072 -100.5181 260° West 365 420 36,000  Level Minneapolis Center
Sun 09:23:27 PM 40.7789 -100.7028 259° West 366 421 36,000  Level Denver Center
Sun 09:24:28 PM 40.7556 -100.8422 258° West 371 427 36,000  Level Denver Center
Sun 09:25:30 PM 40.7311 -100.9922 258° West 372 428 36,000  Level Denver Center
Sun 09:26:31 PM 40.7097 -101.1206 258° West 374 430 36,000  Level Denver Center
Sun 09:27:33 PM 40.6867 -101.2483 257° West 374 430 36,000  Level Denver Center
Sun 09:28:35 PM 40.6608 -101.3978 257° West 374 430 36,000  Level Denver Center
Sun 09:29:36 PM 40.6381 -101.5261 257° West 376 433 36,000  Level Denver Center
Sun 09:30:38 PM 40.6108 -101.6742 256° West 374 430 36,000  Level Denver Center
Sun 09:31:40 PM 40.5883 -101.8017 257° West 374 430 36,000  Level Denver Center
Sun 09:32:41 PM 40.5608 -101.9522 257° West 378 435 36,000  Level Denver Center
Sun 09:33:43 PM 40.5378 -102.0808 257° West 378 435 36,000  Level Denver Center
Sun 09:34:44 PM 40.5186 -102.1875 257° West 377 434 36,000  Level Denver Center
Sun 09:35:46 PM 40.4875 -102.3589 257° West 378 435 36,000  Level Denver Center
Sun 09:36:48 PM 40.4631 -102.4881 256° West 381 438 36,000  Level Denver Center
Sun 09:37:50 PM 40.4347 -102.6400 256° West 385 443 36,000  Level Denver Center
Sun 09:38:51 PM 40.4086 -102.7742 256° West 385 443 36,000  Level Denver Center
Sun 09:39:53 PM 40.3836 -102.9094 256° West 383 441 36,000 -871 Level Denver Center
Sun 09:40:55 PM 40.3583 -103.0419 256° West 376 433 34,200 -2,613 Descending Denver Center
Sun 09:41:57 PM 40.3319 -103.1733 255° West 373 429 30,600 -3,073 Descending Denver Center
Sun 09:42:58 PM 40.3061 -103.3106 256° West 387 445 27,900 -2,585 Descending Denver Center
Sun 09:44:00 PM 40.2772 -103.4647 256° West 365 420 25,300 -2,323 Descending Denver Center
Sun 09:45:02 PM 40.2525 -103.5847 255° West 345 397 23,100 -1,854 Descending Denver Center
Sun 09:46:03 PM 40.2300 -103.6994 256° West 330 380 21,500 -1,694 Descending Denver Center
Sun 09:47:06 PM 40.2086 -103.8114 256° West 304 350 19,600 -1,220 Descending Denver Center
Sun 09:48:06 PM 40.2053 -103.8958 267° West 274 315 19,000 -836 Descending Denver Center
Sun 09:49:08 PM 40.2050 -104.0147 270° West 278 320 17,900 -871 Descending Denver Center
Sun 09:50:10 PM 40.1981 -104.1269 265° West 306 352 17,200 -823 Descending Denver Center
Sun 09:51:12 PM 40.1900 -104.2442 265° West 323 372 16,200 -1,317 Descending Denver Center
Sun 09:52:13 PM 40.1842 -104.3531 266° West 307 353 14,500 -1,756 Descending Denver Center
Sun 09:53:15 PM 40.1764 -104.4656 265° West 291 335 12,600 -1,403 Descending Denver Center
Sun 09:54:17 PM 40.1253 -104.5414 229° Southwest 285 328 11,600 -1,122 Descending Denver Center
Sun 09:55:18 PM 40.0694 -104.5975 218° Southwest 226 260 10,300 -1,366 Descending Denver Center
Sun 09:56:20 PM 40.0292 -104.6428 221° Southwest 191 220 8,800 -1,548 Descending Denver Center
Sun 09:57:22 PM 39.9939 -104.6778 217° Southwest 164 189 7,100 -1,220 Descending Denver Center
Sun 09:58:23 PM 39.9481 -104.6839 186° South 151 174 6,300 -622 Descending Denver Center
Sun 09:59:37 PM 39.9081 -104.6869 183° South 146 168 5,700 -486 Descending Denver Center
Sun 10:01:00 PM 39.8617 -104.6732 194° South  Level Estimated
Sun 10:08:00 PM 39.8617 -104.6732 194° South  Level Estimated
Sun 10:09:00 PM 39.8617 -104.6732 194° South  Level Estimated
Sun 10:10:00 PM 39.8617 -104.6732 194° South  Level Estimated

Login

Don't have an account? Register now (free) for customized features, flight alerts, and more!